Time;durP1;ratioP1;P1;durP2;ratioP2;P2;SDS_P1;SDS_P2;PMS_P1;PMS_P2;Temp;Humidity;BMP_temperature;BMP_pressure;BME280_temperature;BME280_humidity;BME280_pressure;Samples;Min_cycle;Max_cycle;Signal;HPM_P1;HPM_P2
2022/07/04 00:01:39;;;;;;;;;;;;;;;19.57;100.00;100741.72;10417235;28;19925;-70
2022/07/04 00:06:44;;;;;;;;;;;;;;;19.49;100.00;100752.59;10417511;28;19925;-68
2022/07/04 00:11:47;;;;;;;;;;;;;;;19.56;100.00;100737.41;10424216;28;19929;-69
2022/07/04 00:16:50;;;;;;;;;;;;;;;19.47;100.00;100745.66;10424891;28;20279;-70
2022/07/04 00:21:54;;;;;;;;;;;;;;;19.45;100.00;100744.88;10424903;28;19936;-69
2022/07/04 00:26:57;;;;;;;;;;;;;;;19.40;100.00;100741.56;10424441;28;19940;-68
2022/07/04 00:32:00;;;;;;;;;;;;;;;19.35;100.00;100733.00;10424341;28;20066;-72
2022/07/04 00:37:05;;;;;;;;;;;;;;;19.33;100.00;100730.41;10424136;28;19925;-69
2022/07/04 00:42:08;;;;;;;;;;;;;;;19.30;100.00;100720.03;10424012;28;19925;-65
2022/07/04 00:47:11;;;;;;;;;;;;;;;19.26;100.00;100715.75;10423459;28;19931;-68
2022/07/04 00:52:16;;;;;;;;;;;;;;;19.22;100.00;100713.31;10423763;28;19925;-66
2022/07/04 00:57:19;;;;;;;;;;;;;;;19.17;100.00;100710.00;10423460;28;19929;-68
2022/07/04 01:02:22;;;;;;;;;;;;;;;19.14;100.00;100703.09;10423213;28;19975;-67
2022/07/04 01:07:27;;;;;;;;;;;;;;;19.17;100.00;100696.84;10422610;28;20337;-67
2022/07/04 01:12:30;;;;;;;;;;;;;;;19.10;100.00;100687.50;10423704;28;20358;-71
2022/07/04 01:17:33;;;;;;;;;;;;;;;19.08;100.00;100694.59;10422600;28;19944;-69
2022/07/04 01:22:37;;;;;;;;;;;;;;;19.02;100.00;100700.94;10421151;28;19925;-69
2022/07/04 01:27:40;;;;;;;;;;;;;;;19.01;100.00;100703.63;10421892;28;19925;-67
2022/07/04 01:32:43;;;;;;;;;;;;;;;18.95;100.00;100702.09;10421831;28;19925;-71
2022/07/04 01:37:47;;;;;;;;;;;;;;;18.94;100.00;100696.88;10421672;28;20246;-69
2022/07/04 01:42:51;;;;;;;;;;;;;;;18.82;100.00;100707.88;10421455;28;19936;-70
2022/07/04 01:47:54;;;;;;;;;;;;;;;18.68;100.00;100707.53;10421377;28;20255;-65
2022/07/04 01:52:58;;;;;;;;;;;;;;;18.61;100.00;100714.81;10420903;28;19925;-69
2022/07/04 01:58:01;;;;;;;;;;;;;;;18.53;100.00;100705.50;10420949;28;20256;-67
2022/07/04 02:03:04;;;;;;;;;;;;;;;18.52;100.00;100709.06;10420716;28;20251;-68
2022/07/04 02:08:10;;;;;;;;;;;;;;;18.54;100.00;100704.56;10420476;28;19925;-67
2022/07/04 02:13:15;;;;;;;;;;;;;;;18.51;100.00;100700.28;10419853;28;20290;-71
2022/07/04 02:18:18;;;;;;;;;;;;;;;18.50;100.00;100709.06;10420077;28;20124;-67
2022/07/04 02:23:22;;;;;;;;;;;;;;;18.50;100.00;100711.72;10420020;28;19926;-69
2022/07/04 02:28:25;;;;;;;;;;;;;;;18.50;100.00;100709.06;10419981;28;19937;-66
2022/07/04 02:33:28;;;;;;;;;;;;;;;18.51;100.00;100717.84;10419435;28;19929;-70
2022/07/04 02:38:32;;;;;;;;;;;;;;;18.51;100.00;100712.56;10419485;28;19925;-69
2022/07/04 02:43:35;;;;;;;;;;;;;;;18.49;100.00;100698.63;10419649;28;20358;-69
2022/07/04 02:48:38;;;;;;;;;;;;;;;18.51;100.00;100702.06;10418768;28;20011;-68
2022/07/04 02:53:45;;;;;;;;;;;;;;;18.43;100.00;100691.81;10419028;28;20426;-67
2022/07/04 02:58:48;;;;;;;;;;;;;;;18.42;100.00;100698.88;10419403;28;19929;-66
2022/07/04 03:03:51;;;;;;;;;;;;;;;18.52;100.00;100703.78;10418505;28;19936;-68
2022/07/04 03:08:58;;;;;;;;;;;;;;;18.49;100.00;100709.13;10418810;28;20237;-65
2022/07/04 03:14:01;;;;;;;;;;;;;;;18.53;100.00;100703.72;10418398;28;20260;-67
2022/07/04 03:19:04;;;;;;;;;;;;;;;18.57;100.00;100705.31;10418075;28;20353;-64
2022/07/04 03:24:09;;;;;;;;;;;;;;;18.59;100.00;100710.50;10418029;28;19932;-66
2022/07/04 03:29:12;;;;;;;;;;;;;;;18.59;100.00;100715.75;10418012;28;19932;-70
2022/07/04 03:34:15;;;;;;;;;;;;;;;18.72;100.00;100712.66;10418010;28;20344;-66
2022/07/04 03:39:19;;;;;;;;;;;;;;;18.75;100.00;100719.56;10418012;28;19925;-68
2022/07/04 03:44:22;;;;;;;;;;;;;;;18.85;100.00;100713.88;10421183;28;19925;-71
2022/07/04 03:49:25;;;;;;;;;;;;;;;18.91;100.00;100715.44;10426042;28;19925;-71
2022/07/04 03:54:29;;;;;;;;;;;;;;;18.94;100.00;100715.31;10425853;28;19929;-70
2022/07/04 03:59:32;;;;;;;;;;;;;;;19.08;100.00;100719.13;10425852;28;19925;-68
2022/07/04 04:09:59;;;;;;;;;;;;;;;19.25;100.00;100708.78;10424918;28;19936;-66
2022/07/04 04:15:02;;;;;;;;;;;;;;;19.34;100.00;100702.34;10424923;28;19925;-71
2022/07/04 04:20:08;;;;;;;;;;;;;;;19.37;100.00;100695.16;10424331;28;20388;-70
2022/07/04 04:25:12;;;;;;;;;;;;;;;19.43;100.00;100692.28;10424637;28;19939;-69
2022/07/04 04:30:15;;;;;;;;;;;;;;;19.44;100.00;100686.09;10424477;28;19925;-70
2022/07/04 04:35:19;;;;;;;;;;;;;;;19.50;100.00;100684.97;10424384;28;19951;-67
2022/07/04 04:40:23;;;;;;;;;;;;;;;19.53;100.00;100690.97;10423843;28;19925;-70
2022/07/04 04:45:26;;;;;;;;;;;;;;;19.70;100.00;100687.66;10423624;28;19925;-71
2022/07/04 04:50:29;;;;;;;;;;;;;;;19.77;100.00;100688.25;10423563;28;20248;-73
2022/07/04 04:55:33;;;;;;;;;;;;;;;19.75;100.00;100688.31;10423553;28;19925;-68
2022/07/04 05:00:36;;;;;;;;;;;;;;;19.90;100.00;100678.88;10423351;28;19925;-67
2022/07/04 05:05:39;;;;;;;;;;;;;;;19.93;100.00;100679.59;10422826;28;20044;-68
2022/07/04 05:10:43;;;;;;;;;;;;;;;20.05;100.00;100689.59;10422425;28;20355;-67
2022/07/04 05:15:47;;;;;;;;;;;;;;;20.03;100.00;100680.06;10422764;28;19935;-71
2022/07/04 05:20:50;;;;;;;;;;;;;;;20.06;100.00;100693.13;10422344;28;19925;-68
2022/07/04 05:25:54;;;;;;;;;;;;;;;20.16;100.00;100691.81;10422339;28;20356;-69
2022/07/04 05:30:57;;;;;;;;;;;;;;;20.21;100.00;100690.69;10422197;28;19944;-68
2022/07/04 05:36:00;;;;;;;;;;;;;;;20.38;100.00;100689.97;10421816;28;19929;-67
2022/07/04 05:41:04;;;;;;;;;;;;;;;20.45;100.00;100694.88;10422211;28;19925;-66
2022/07/04 05:46:07;;;;;;;;;;;;;;;20.51;100.00;100693.75;10421173;28;19925;-66
2022/07/04 05:51:10;;;;;;;;;;;;;;;20.61;100.00;100687.97;10421195;28;19955;-71
2022/07/04 05:56:15;;;;;;;;;;;;;;;20.71;100.00;100690.22;10424672;28;19925;-69
2022/07/04 06:01:18;;;;;;;;;;;;;;;20.83;100.00;100692.28;10420607;28;20011;-69
2022/07/04 06:06:21;;;;;;;;;;;;;;;20.88;100.00;100698.19;10419972;28;19925;-66
2022/07/04 06:11:25;;;;;;;;;;;;;;;21.00;100.00;100687.94;10420298;28;19924;-64
2022/07/04 06:16:28;;;;;;;;;;;;;;;21.07;100.00;100683.22;10420304;28;19936;-68
2022/07/04 06:21:31;;;;;;;;;;;;;;;21.10;100.00;100678.66;10419774;28;19925;-64
2022/07/04 06:26:35;;;;;;;;;;;;;;;21.28;100.00;100676.88;10419902;28;19925;-68
2022/07/04 06:31:38;;;;;;;;;;;;;;;21.34;100.00;100664.28;10419077;28;19925;-66
2022/07/04 06:36:41;;;;;;;;;;;;;;;21.45;100.00;100661.94;10419141;28;19935;-68
2022/07/04 06:41:46;;;;;;;;;;;;;;;21.54;100.00;100653.56;10419123;28;19939;-66
2022/07/04 06:46:50;;;;;;;;;;;;;;;21.65;100.00;100645.94;10419075;28;19930;-67
2022/07/04 06:51:53;;;;;;;;;;;;;;;21.67;100.00;100635.31;10418509;28;19925;-67
2022/07/04 06:56:58;;;;;;;;;;;;;;;21.74;99.22;100631.41;10418532;28;19936;-68
2022/07/04 07:02:21;;;;;;;;;;;;;;;21.77;100.00;100645.34;10418715;28;20229;-65
2022/07/04 07:07:26;;;;;;;;;;;;;;;21.76;100.00;100640.94;10395262;28;19926;-63
2022/07/04 07:12:31;;;;;;;;;;;;;;;21.82;97.75;100653.03;10376063;28;20359;-67
2022/07/04 07:17:34;;;;;;;;;;;;;;;21.95;93.31;100635.59;10376186;28;19925;-65
2022/07/04 07:22:37;;;;;;;;;;;;;;;22.03;94.75;100635.22;10377360;28;20012;-61
2022/07/04 07:27:46;;;;;;;;;;;;;;;22.06;94.02;100638.53;10377290;28;19925;-63
2022/07/04 07:32:49;;;;;;;;;;;;;;;22.17;92.01;100640.63;10377105;28;19960;-65
2022/07/04 07:37:52;;;;;;;;;;;;;;;22.28;89.28;100631.16;10376861;28;19930;-65
2022/07/04 07:42:57;;;;;;;;;;;;;;;22.37;88.55;100627.19;10399890;28;20348;-59
2022/07/04 07:48:00;;;;;;;;;;;;;;;22.49;86.92;100631.81;10417860;28;20019;-62
2022/07/04 07:53:03;;;;;;;;;;;;;;;22.72;87.40;100637.59;10417761;28;19925;-63
2022/07/04 07:58:07;;;;;;;;;;;;;;;22.84;86.30;100636.91;10417392;28;19925;-66
2022/07/04 08:08:32;;;;;;;;;;;;;;;23.14;82.19;100622.88;10416795;28;20306;-66
2022/07/04 08:13:36;;;;;;;;;;;;;;;23.39;80.34;100624.03;10416788;28;20256;-65
2022/07/04 08:18:39;;;;;;;;;;;;;;;23.66;78.19;100618.91;10417020;28;20359;-67
2022/07/04 08:23:43;;;;;;;;;;;;;;;23.75;78.29;100623.66;10417070;28;20340;-66
2022/07/04 08:29:07;;;;;;;;;;;;;;;23.81;75.97;100631.25;10417829;28;19925;-65
2022/07/04 08:34:10;;;;;;;;;;;;;;;23.86;75.42;100607.97;10424228;28;19925;-63
2022/07/04 08:39:13;;;;;;;;;;;;;;;23.97;76.55;100610.78;10423825;28;19931;-66
2022/07/04 08:44:18;;;;;;;;;;;;;;;24.06;76.66;100617.41;10423734;28;20023;-68
2022/07/04 08:49:21;;;;;;;;;;;;;;;24.10;75.21;100606.50;10423988;28;19925;-66
2022/07/04 08:59:49;;;;;;;;;;;;;;;24.44;72.37;100614.03;10423281;28;19925;-67
2022/07/04 09:04:52;;;;;;;;;;;;;;;24.51;69.76;100606.53;10423231;28;19925;-69
2022/07/04 09:09:57;;;;;;;;;;;;;;;24.46;68.16;100612.16;10422602;28;19940;-65
2022/07/04 09:15:01;;;;;;;;;;;;;;;24.41;67.65;100619.56;10422659;28;19925;-64
2022/07/04 09:20:11;;;;;;;;;;;;;;;24.44;65.98;100615.84;10422261;28;19956;-66
2022/07/04 09:25:15;;;;;;;;;;;;;;;24.62;67.74;100610.25;10422393;28;20023;-64
2022/07/04 09:30:20;;;;;;;;;;;;;;;24.85;67.20;100616.78;10421860;28;20315;-66
2022/07/04 09:35:24;;;;;;;;;;;;;;;25.12;66.26;100630.91;10422111;28;19925;-66
2022/07/04 09:40:28;;;;;;;;;;;;;;;25.17;63.80;100628.78;10420817;28;19936;-64
2022/07/04 09:45:32;;;;;;;;;;;;;;;25.29;63.86;100627.13;10421422;28;20341;-64
2022/07/04 09:50:35;;;;;;;;;;;;;;;25.58;62.78;100618.06;10421394;28;19925;-66
2022/07/04 09:55:39;;;;;;;;;;;;;;;25.88;61.61;100621.31;10420968;28;19930;-67
2022/07/04 10:00:45;;;;;;;;;;;;;;;26.22;59.55;100618.03;10421330;28;19940;-66
2022/07/04 10:05:48;;;;;;;;;;;;;;;26.41;57.90;100613.09;10420799;28;19925;-66
2022/07/04 10:10:57;;;;;;;;;;;;;;;26.34;57.73;100606.50;10420417;28;19936;-68
2022/07/04 10:16:02;;;;;;;;;;;;;;;26.31;58.88;100609.41;10419906;28;19952;-69
2022/07/04 10:21:05;;;;;;;;;;;;;;;26.82;58.84;100605.66;10419911;28;20012;-67
2022/07/04 10:26:08;;;;;;;;;;;;;;;27.19;57.38;100603.81;10420534;28;20341;-65
2022/07/04 10:31:13;;;;;;;;;;;;;;;27.66;55.60;100613.59;10419771;28;19937;-69
2022/07/04 10:36:17;;;;;;;;;;;;;;;28.14;54.13;100599.13;10419599;28;20267;-70
2022/07/04 10:41:21;;;;;;;;;;;;;;;28.34;55.26;100598.38;10419747;28;19925;-67
2022/07/04 10:46:39;;;;;;;;;;;;;;;28.42;55.26;100604.81;10418999;28;19935;-66
2022/07/04 10:51:45;;;;;;;;;;;;;;;28.96;54.73;100596.84;10416806;28;19936;-67
2022/07/04 10:56:50;;;;;;;;;;;;;;;29.33;52.90;100592.88;10418897;28;19939;-69
2022/07/04 11:01:58;;;;;;;;;;;;;;;29.54;53.97;100580.31;10418878;28;19936;-68
2022/07/04 11:07:23;;;;;;;;;;;;;;;29.65;53.59;100591.97;10418413;28;19931;-66
2022/07/04 11:12:26;;;;;;;;;;;;;;;29.78;52.71;100579.25;10418535;28;19925;-66
2022/07/04 11:17:37;;;;;;;;;;;;;;;29.68;52.12;100581.03;10418534;28;19936;-65
2022/07/04 11:22:41;;;;;;;;;;;;;;;28.94;51.94;100581.94;10418086;28;20263;-67
2022/07/04 11:27:44;;;;;;;;;;;;;;;28.71;54.26;100573.13;10418609;28;19929;-69
2022/07/04 11:32:47;;;;;;;;;;;;;;;28.78;52.66;100584.16;10418572;28;20019;-65
2022/07/04 11:37:58;;;;;;;;;;;;;;;28.64;52.13;100573.75;10417965;28;19925;-68
2022/07/04 11:48:25;;;;;;;;;;;;;;;29.00;52.86;100562.69;10417814;28;19935;-67
2022/07/04 11:53:30;;;;;;;;;;;;;;;29.24;53.70;100558.00;10417700;28;19936;-66
2022/07/04 11:58:39;;;;;;;;;;;;;;;29.06;54.89;100544.31;10417899;28;19936;-65
2022/07/04 12:03:42;;;;;;;;;;;;;;;28.81;53.87;100550.00;10417911;28;19986;-69
2022/07/04 12:08:47;;;;;;;;;;;;;;;28.69;55.05;100540.34;10425844;28;20025;-66
2022/07/04 12:13:50;;;;;;;;;;;;;;;29.15;54.64;100538.22;10424994;28;20017;-66
2022/07/04 12:18:55;;;;;;;;;;;;;;;29.22;50.78;100543.91;10424831;28;19925;-65
2022/07/04 12:24:02;;;;;;;;;;;;;;;29.21;50.95;100539.56;10424846;28;19951;-66
2022/07/04 12:29:09;;;;;;;;;;;;;;;29.05;52.01;100542.63;10424401;28;19925;-66
2022/07/04 12:34:15;;;;;;;;;;;;;;;29.16;51.53;100537.28;10423873;28;19925;-67
2022/07/04 12:39:30;;;;;;;;;;;;;;;29.13;51.56;100552.72;10423947;28;19925;-66
2022/07/04 12:44:33;;;;;;;;;;;;;;;28.73;52.78;100555.16;10423943;28;19935;-66
2022/07/04 12:49:36;;;;;;;;;;;;;;;28.53;53.11;100545.22;10423672;28;19944;-67
2022/07/04 12:54:41;;;;;;;;;;;;;;;28.33;53.88;100541.47;10423584;28;19925;-67
2022/07/04 12:59:44;;;;;;;;;;;;;;;28.15;53.11;100545.59;10423345;28;19929;-66
2022/07/04 13:04:47;;;;;;;;;;;;;;;28.21;52.20;100539.78;10423259;28;19925;-66
2022/07/04 13:09:51;;;;;;;;;;;;;;;28.18;53.35;100548.03;10423079;28;20245;-67
2022/07/04 13:14:55;;;;;;;;;;;;;;;28.07;54.70;100539.19;10422822;28;20011;-68
2022/07/04 13:19:58;;;;;;;;;;;;;;;28.53;54.61;100531.84;10422261;28;19935;-65
2022/07/04 13:25:03;;;;;;;;;;;;;;;29.32;52.53;100520.78;10422344;28;20020;-64
2022/07/04 13:30:07;;;;;;;;;;;;;;;30.20;50.98;100505.88;10422303;28;19925;-67
2022/07/04 13:35:10;;;;;;;;;;;;;;;30.53;49.89;100506.41;10421984;28;20011;-65
2022/07/04 13:40:15;;;;;;;;;;;;;;;30.82;48.03;100517.22;10421834;28;19925;-69
2022/07/04 13:45:18;;;;;;;;;;;;;;;30.70;48.12;100523.66;10421538;28;19925;-65
2022/07/04 13:50:22;;;;;;;;;;;;;;;31.01;49.80;100511.81;10421151;28;20264;-68
2022/07/04 13:55:27;;;;;;;;;;;;;;;30.93;48.66;100519.72;10421380;28;19925;-64
2022/07/04 14:00:31;;;;;;;;;;;;;;;30.73;49.90;100526.03;10420812;28;19925;-61
2022/07/04 14:05:34;;;;;;;;;;;;;;;30.15;48.75;100516.16;10420603;28;19937;-64
2022/07/04 14:10:38;;;;;;;;;;;;;;;29.96;49.18;100534.84;10420542;28;19925;-64
2022/07/04 14:15:41;;;;;;;;;;;;;;;29.34;50.25;100527.69;10420336;28;19951;-65
2022/07/04 14:20:45;;;;;;;;;;;;;;;29.54;51.08;100526.81;10419757;28;20050;-63
2022/07/04 14:25:49;;;;;;;;;;;;;;;29.57;49.66;100516.81;10419573;28;19925;-65
2022/07/04 14:30:53;;;;;;;;;;;;;;;29.14;51.34;100517.84;10418738;28;19963;-67
2022/07/04 14:35:56;;;;;;;;;;;;;;;29.28;50.54;100519.34;10419818;28;19940;-65
2022/07/04 14:41:09;;;;;;;;;;;;;;;29.62;50.82;100514.59;10419265;28;20267;-66
2022/07/04 14:46:13;;;;;;;;;;;;;;;29.48;51.97;100511.31;10418943;28;20256;-63
2022/07/04 14:51:16;;;;;;;;;;;;;;;30.00;50.13;100502.28;10419327;28;19928;-70
2022/07/04 14:56:20;;;;;;;;;;;;;;;29.95;50.28;100495.63;10418741;28;20317;-66
2022/07/04 15:01:23;;;;;;;;;;;;;;;29.91;50.06;100503.09;10418178;28;19925;-65
2022/07/04 15:06:26;;;;;;;;;;;;;;;30.11;49.58;100498.66;10418682;28;19929;-67
2022/07/04 15:11:31;;;;;;;;;;;;;;;29.65;49.57;100498.31;10418743;28;20020;-69
2022/07/04 15:16:35;;;;;;;;;;;;;;;29.27;50.74;100510.44;10418199;28;19925;-67
2022/07/04 15:26:59;;;;;;;;;;;;;;;28.19;52.87;100501.69;10386763;28;20382;-65
2022/07/04 15:32:04;;;;;;;;;;;;;;;28.21;52.22;100498.88;10416263;28;19925;-65
2022/07/04 15:37:12;;;;;;;;;;;;;;;28.09;53.30;100482.03;10416402;28;19926;-68
2022/07/04 15:42:16;;;;;;;;;;;;;;;28.31;53.35;100486.47;10421649;28;20012;-65
2022/07/04 15:47:19;;;;;;;;;;;;;;;28.89;51.26;100501.28;10423454;28;20083;-68
2022/07/04 15:52:23;;;;;;;;;;;;;;;29.00;50.40;100507.41;10423263;28;19925;-67
2022/07/04 15:57:28;;;;;;;;;;;;;;;28.53;50.43;100518.50;10423049;28;19940;-64
2022/07/04 16:02:31;;;;;;;;;;;;;;;28.22;51.04;100506.75;10423021;28;19925;-64
2022/07/04 16:07:34;;;;;;;;;;;;;;;27.90;53.75;100512.94;10422704;28;19990;-65
2022/07/04 16:12:38;;;;;;;;;;;;;;;27.75;52.49;100507.00;10422346;28;19928;-69
2022/07/04 16:17:41;;;;;;;;;;;;;;;27.66;52.80;100512.22;10422361;28;20329;-65
2022/07/04 16:23:02;;;;;;;;;;;;;;;27.54;53.62;100505.16;10537199;28;19922;-67
2022/07/04 16:28:05;;;;;;;;;;;;;;;27.47;53.38;100511.94;10537411;28;19924;-67
2022/07/04 16:33:08;;;;;;;;;;;;;;;27.37;53.49;100506.44;10537210;28;20227;-68
2022/07/04 16:38:12;;;;;;;;;;;;;;;27.36;54.42;100506.56;10536951;28;20019;-69
2022/07/04 16:43:15;;;;;;;;;;;;;;;27.35;54.29;100510.22;10536772;28;19955;-68
2022/07/04 16:48:18;;;;;;;;;;;;;;;27.28;54.21;100501.81;10536572;28;20268;-67
2022/07/04 16:53:23;;;;;;;;;;;;;;;27.26;54.46;100495.75;10536350;28;19930;-68
2022/07/04 16:58:26;;;;;;;;;;;;;;;27.33;54.68;100493.47;10536269;28;20258;-69
2022/07/04 17:03:29;;;;;;;;;;;;;;;27.40;54.34;100479.56;10536028;28;19924;-69
2022/07/04 17:08:34;;;;;;;;;;;;;;;27.44;55.27;100485.53;10535735;28;19924;-65
2022/07/04 17:13:38;;;;;;;;;;;;;;;27.28;54.05;100491.97;10535462;28;19946;-69
2022/07/04 17:18:41;;;;;;;;;;;;;;;27.21;54.62;100482.75;10541315;28;19935;-66
2022/07/04 17:23:45;;;;;;;;;;;;;;;27.17;55.19;100483.97;10577481;28;19924;-66
2022/07/04 17:28:48;;;;;;;;;;;;;;;27.06;56.31;100486.59;10577292;28;19924;-66
2022/07/04 17:33:51;;;;;;;;;;;;;;;26.94;57.09;100479.53;10551530;28;20368;-65
2022/07/04 17:38:55;;;;;;;;;;;;;;;26.92;58.15;100486.78;10548424;28;19964;-65
2022/07/04 17:43:58;;;;;;;;;;;;;;;26.92;57.79;100476.13;10548491;28;19924;-65
2022/07/04 17:49:01;;;;;;;;;;;;;;;26.91;56.84;100474.44;10548296;28;19934;-68
2022/07/04 17:54:06;;;;;;;;;;;;;;;26.93;56.58;100472.50;10548278;28;19934;-65
2022/07/04 17:59:12;;;;;;;;;;;;;;;26.85;56.62;100476.72;10547696;28;20292;-63
2022/07/04 18:04:15;;;;;;;;;;;;;;;26.78;56.82;100465.69;10547653;28;19924;-66
2022/07/04 18:09:19;;;;;;;;;;;;;;;26.72;56.95;100468.78;10547515;28;19924;-68
2022/07/04 18:14:24;;;;;;;;;;;;;;;26.53;58.98;100479.09;10547334;28;20384;-67
2022/07/04 18:19:27;;;;;;;;;;;;;;;26.36;59.72;100479.47;10546808;28;20327;-67
2022/07/04 18:24:31;;;;;;;;;;;;;;;26.23;60.15;100492.00;10546809;28;19935;-65
2022/07/04 18:29:34;;;;;;;;;;;;;;;26.17;60.17;100497.75;10547094;28;20026;-64
2022/07/04 18:34:37;;;;;;;;;;;;;;;26.08;61.01;100495.72;10546272;28;19936;-65
2022/07/04 18:39:42;;;;;;;;;;;;;;;26.06;61.98;100493.19;10546561;28;19924;-66
2022/07/04 18:44:45;;;;;;;;;;;;;;;25.93;63.27;100507.44;10544917;28;19924;-64
2022/07/04 18:49:48;;;;;;;;;;;;;;;25.95;62.88;100508.19;10545753;28;19924;-66
2022/07/04 18:54:52;;;;;;;;;;;;;;;25.88;64.16;100514.91;10545695;28;20380;-65
2022/07/04 19:00:00;;;;;;;;;;;;;;;25.78;64.88;100521.84;10545350;28;19934;-63
2022/07/04 19:05:03;;;;;;;;;;;;;;;25.70;65.86;100511.72;10545367;28;19935;-67
2022/07/04 19:10:08;;;;;;;;;;;;;;;25.62;67.13;100519.41;10544945;28;19934;-65
2022/07/04 19:15:12;;;;;;;;;;;;;;;25.46;68.50;100531.16;10545065;28;19923;-65
2022/07/04 19:20:16;;;;;;;;;;;;;;;25.36;69.41;100525.66;10544292;28;19924;-66
2022/07/04 19:25:21;;;;;;;;;;;;;;;25.19;70.99;100533.88;10544507;28;19989;-64
2022/07/04 19:30:44;;;;;;;;;;;;;;;25.12;71.64;100540.56;10544653;28;20024;-69
2022/07/04 19:35:53;;;;;;;;;;;;;;;24.95;73.67;100538.19;10544202;28;19932;-69
2022/07/04 19:40:57;;;;;;;;;;;;;;;24.78;75.22;100547.25;10544036;28;19924;-65
2022/07/04 19:46:00;;;;;;;;;;;;;;;24.64;76.80;100552.56;10543880;28;19930;-68
2022/07/04 19:51:03;;;;;;;;;;;;;;;24.51;78.01;100549.00;10543665;28;19924;-66
2022/07/04 19:56:08;;;;;;;;;;;;;;;24.38;79.31;100556.06;10543083;28;19924;-64
2022/07/04 20:01:11;;;;;;;;;;;;;;;24.21;79.83;100550.13;10543382;28;19924;-65
2022/07/04 20:06:15;;;;;;;;;;;;;;;24.10;79.92;100558.75;10543334;28;19924;-67
2022/07/04 20:11:20;;;;;;;;;;;;;;;23.89;82.59;100560.91;10543074;28;19924;-66
2022/07/04 20:16:25;;;;;;;;;;;;;;;23.83;82.26;100555.13;10542825;28;19924;-64
2022/07/04 20:21:28;;;;;;;;;;;;;;;23.72;83.16;100568.16;10542547;28;19938;-65
2022/07/04 20:26:33;;;;;;;;;;;;;;;23.61;85.27;100565.28;10542762;28;20361;-66
2022/07/04 20:31:57;;;;;;;;;;;;;;;23.47;86.26;100565.31;10542848;28;19924;-63
2022/07/04 20:37:00;;;;;;;;;;;;;;;23.35;86.87;100568.69;10542726;28;19934;-65
2022/07/04 20:42:05;;;;;;;;;;;;;;;23.21;87.71;100582.69;10542346;28;19935;-65
2022/07/04 20:47:08;;;;;;;;;;;;;;;23.14;88.59;100572.53;10542460;28;19928;-65
2022/07/04 20:52:12;;;;;;;;;;;;;;;23.07;89.33;100580.00;10542382;28;20347;-66
2022/07/04 20:57:16;;;;;;;;;;;;;;;23.00;90.69;100583.09;10542401;28;19924;-66
2022/07/04 21:02:21;;;;;;;;;;;;;;;22.89;91.25;100600.44;10542224;28;19934;-67
2022/07/04 21:07:25;;;;;;;;;;;;;;;22.82;91.89;100607.00;10546132;28;19924;-67
2022/07/04 21:12:29;;;;;;;;;;;;;;;22.77;93.26;100608.22;10550016;28;20336;-67
2022/07/04 21:17:32;;;;;;;;;;;;;;;22.66;93.32;100613.22;10549695;28;19924;-67
2022/07/04 21:22:36;;;;;;;;;;;;;;;22.55;94.45;100607.69;10549386;28;20299;-71
2022/07/04 21:27:40;;;;;;;;;;;;;;;22.45;95.15;100612.59;10549130;28;20256;-66
2022/07/04 21:32:45;;;;;;;;;;;;;;;22.43;96.35;100611.00;10549014;28;20292;-66
2022/07/04 21:37:48;;;;;;;;;;;;;;;22.37;97.35;100620.09;10548985;28;19932;-67
2022/07/04 21:42:53;;;;;;;;;;;;;;;22.30;97.70;100628.44;10548699;28;19924;-68
2022/07/04 21:47:57;;;;;;;;;;;;;;;22.22;98.54;100636.81;10548495;28;19944;-67
2022/07/04 21:53:03;;;;;;;;;;;;;;;22.16;99.95;100634.47;10548254;28;19934;-65
2022/07/04 21:58:07;;;;;;;;;;;;;;;22.13;100.00;100644.34;10548157;28;19924;-65
2022/07/04 22:03:10;;;;;;;;;;;;;;;22.04;100.00;100642.22;10547814;28;19924;-66
2022/07/04 22:08:13;;;;;;;;;;;;;;;21.99;100.00;100654.78;10548078;28;19939;-68
2022/07/04 22:13:18;;;;;;;;;;;;;;;21.92;100.00;100662.19;10547523;28;19950;-67
2022/07/04 22:18:21;;;;;;;;;;;;;;;21.84;100.00;100653.81;10546907;28;19924;-67
2022/07/04 22:23:24;;;;;;;;;;;;;;;21.81;100.00;100646.06;10546884;28;20323;-65
2022/07/04 22:28:28;;;;;;;;;;;;;;;21.82;100.00;100649.53;10546986;28;19924;-65
2022/07/04 22:33:31;;;;;;;;;;;;;;;21.74;100.00;100644.63;10546600;28;19924;-67
2022/07/04 22:38:34;;;;;;;;;;;;;;;21.67;100.00;100646.69;10546453;28;19925;-64
2022/07/04 22:43:38;;;;;;;;;;;;;;;21.60;100.00;100642.69;10546166;28;19924;-72
2022/07/04 22:48:41;;;;;;;;;;;;;;;21.56;100.00;100643.78;10546096;28;20007;-66
2022/07/04 22:59:07;;;;;;;;;;;;;;;21.50;100.00;100648.50;10545767;28;19934;-66
2022/07/04 23:04:10;;;;;;;;;;;;;;;21.39;100.00;100649.03;10545410;28;19928;-66
2022/07/04 23:09:13;;;;;;;;;;;;;;;21.34;100.00;100644.91;10545283;28;19924;-65
2022/07/04 23:14:17;;;;;;;;;;;;;;;21.29;100.00;100641.66;10545046;28;19930;-66
2022/07/04 23:19:20;;;;;;;;;;;;;;;21.28;100.00;100646.06;10544534;28;20285;-66
2022/07/04 23:24:23;;;;;;;;;;;;;;;21.26;100.00;100642.66;10544607;28;19923;-66
2022/07/04 23:29:27;;;;;;;;;;;;;;;21.21;100.00;100633.25;10543958;28;19932;-67
2022/07/04 23:34:30;;;;;;;;;;;;;;;21.22;100.00;100635.81;10544307;28;19928;-68
2022/07/04 23:39:33;;;;;;;;;;;;;;;21.19;100.00;100622.75;10544201;28;19946;-65
2022/07/04 23:44:38;;;;;;;;;;;;;;;21.15;100.00;100617.72;10543860;28;20006;-66
2022/07/04 23:49:41;;;;;;;;;;;;;;;21.13;100.00;100630.13;10543602;28;19924;-64
2022/07/04 23:54:44;;;;;;;;;;;;;;;21.17;100.00;100636.97;10543483;28;19924;-66
2022/07/04 23:59:49;;;;;;;;;;;;;;;21.13;100.00;100640.69;10543671;28;19924;-67
